EXS69DB EGPH-LGIR
Flight info
| Callsign | EXS69DB |
|---|---|
| Flight time | N/A |
| Altitude | 37000 |
| Route | TLA Y96 OTBUN DCT ERKIT N110 DOLAS DCT NAVPI DCT DODEN DCT NEGIX DCT DINKU M867 XERUM DCT BAVAX DCT RADIZ DCT ABISO DCT NEMEK DCT ELTIB DCT INLOT DCT PINDO DCT LUSES DCT ATV UL995 KEA UL607 GIVIS T514 XAVIS |
| Aircraft | A21N/M-SDE2E3FGHIRWXY/LB1 |
Departure
| Time | N/A |
|---|---|
| Airport | Edinburgh Airport (EGPH) |
Arrival
| Time | 2026-04-28 20:36 |
|---|---|
| Airport | Heraklion International Nikos Kazantzakis Airport (LGIR) |
| Time | Latitude | Longitude | Altitude | Speed | Heading |
|---|---|---|---|---|---|
| 2026-04-28 20:03 | 37.66549 | 24.13778 | 37097 ft | 480 kts | 130° |
| 2026-04-28 20:04 | 37.64380 | 24.17004 | 37097 ft | 480 kts | 131° |
| 2026-04-28 20:04 | 37.60043 | 24.23422 | 37098 ft | 480 kts | 131° |
| 2026-04-28 20:05 | 37.55561 | 24.29686 | 37092 ft | 479 kts | 140° |
| 2026-04-28 20:05 | 37.50144 | 24.34342 | 37095 ft | 477 kts | 150° |
| 2026-04-28 20:06 | 37.44447 | 24.38735 | 37102 ft | 477 kts | 150° |
| 2026-04-28 20:06 | 37.38782 | 24.43156 | 37088 ft | 480 kts | 150° |
| 2026-04-28 20:07 | 37.33116 | 24.47598 | 37090 ft | 480 kts | 150° |
| 2026-04-28 20:07 | 37.27439 | 24.52037 | 37088 ft | 480 kts | 150° |
| 2026-04-28 20:08 | 37.21760 | 24.56472 | 37090 ft | 480 kts | 150° |
| 2026-04-28 20:08 | 37.16086 | 24.60891 | 37090 ft | 480 kts | 150° |
| 2026-04-28 20:09 | 37.10422 | 24.65296 | 36772 ft | 473 kts | 150° |
| 2026-04-28 20:09 | 37.07662 | 24.67439 | 36265 ft | 472 kts | 150° |
| 2026-04-28 20:09 | 37.04870 | 24.69606 | 35707 ft | 471 kts | 150° |
| 2026-04-28 20:09 | 37.02084 | 24.71762 | 35176 ft | 470 kts | 149° |
| 2026-04-28 20:10 | 36.99305 | 24.73909 | 34631 ft | 469 kts | 149° |
| 2026-04-28 20:10 | 36.96527 | 24.76060 | 34079 ft | 468 kts | 149° |
| 2026-04-28 20:10 | 36.93765 | 24.78198 | 33462 ft | 465 kts | 149° |
| 2026-04-28 20:10 | 36.91034 | 24.80312 | 32887 ft | 460 kts | 149° |
| 2026-04-28 20:11 | 36.88323 | 24.82405 | 32344 ft | 455 kts | 149° |
| 2026-04-28 20:11 | 36.85646 | 24.84479 | 31797 ft | 450 kts | 149° |
| 2026-04-28 20:11 | 36.83004 | 24.86527 | 31277 ft | 445 kts | 148° |
| 2026-04-28 20:11 | 36.80380 | 24.88558 | 30767 ft | 440 kts | 148° |
| 2026-04-28 20:12 | 36.77792 | 24.90555 | 30295 ft | 436 kts | 148° |
| 2026-04-28 20:12 | 36.75246 | 24.92515 | 29749 ft | 434 kts | 148° |
| 2026-04-28 20:12 | 36.72682 | 24.94494 | 29183 ft | 431 kts | 148° |
| 2026-04-28 20:12 | 36.70994 | 24.95797 | 28825 ft | 428 kts | 148° |
| 2026-04-28 20:13 | 36.67640 | 24.98375 | 28155 ft | 420 kts | 148° |
| 2026-04-28 20:13 | 36.65995 | 24.99635 | 27829 ft | 417 kts | 148° |
| 2026-04-28 20:13 | 36.63541 | 25.01517 | 27365 ft | 412 kts | 148° |
| 2026-04-28 20:13 | 36.61111 | 25.03380 | 26874 ft | 407 kts | 148° |
| 2026-04-28 20:14 | 36.58713 | 25.05214 | 26389 ft | 403 kts | 148° |
| 2026-04-28 20:14 | 36.56331 | 25.07038 | 25917 ft | 399 kts | 148° |
| 2026-04-28 20:14 | 36.53971 | 25.08842 | 25475 ft | 395 kts | 148° |
| 2026-04-28 20:14 | 36.51640 | 25.10621 | 25028 ft | 391 kts | 148° |
| 2026-04-28 20:15 | 36.49351 | 25.12365 | 24564 ft | 389 kts | 148° |
| 2026-04-28 20:15 | 36.47055 | 25.14118 | 24105 ft | 386 kts | 148° |
| 2026-04-28 20:15 | 36.44773 | 25.15861 | 23648 ft | 384 kts | 148° |
| 2026-04-28 20:15 | 36.42507 | 25.17587 | 23128 ft | 381 kts | 148° |
| 2026-04-28 20:16 | 36.40247 | 25.19306 | 22638 ft | 377 kts | 148° |
| 2026-04-28 20:16 | 36.38010 | 25.21008 | 22178 ft | 374 kts | 148° |
| 2026-04-28 20:16 | 36.35831 | 25.22667 | 21720 ft | 370 kts | 148° |
| 2026-04-28 20:16 | 36.33646 | 25.24329 | 21262 ft | 367 kts | 148° |
| 2026-04-28 20:17 | 36.31472 | 25.25981 | 20818 ft | 365 kts | 148° |
| 2026-04-28 20:17 | 36.28711 | 25.28075 | 20274 ft | 360 kts | 148° |
| 2026-04-28 20:17 | 36.26600 | 25.29674 | 19878 ft | 359 kts | 148° |
| 2026-04-28 20:17 | 36.24474 | 25.31283 | 19477 ft | 359 kts | 148° |
| 2026-04-28 20:18 | 36.22335 | 25.32904 | 19073 ft | 359 kts | 148° |
| 2026-04-28 20:18 | 36.20924 | 25.33972 | 18817 ft | 360 kts | 148° |
| 2026-04-28 20:18 | 36.18068 | 25.36132 | 18285 ft | 361 kts | 148° |
| 2026-04-28 20:18 | 36.15917 | 25.37752 | 17856 ft | 361 kts | 148° |
| 2026-04-28 20:19 | 36.13768 | 25.39367 | 17435 ft | 362 kts | 148° |
| 2026-04-28 20:19 | 36.11538 | 25.40807 | 17015 ft | 361 kts | 159° |
| 2026-04-28 20:19 | 36.09172 | 25.41796 | 16628 ft | 355 kts | 162° |
| 2026-04-28 20:19 | 36.06830 | 25.42715 | 16256 ft | 350 kts | 162° |
| 2026-04-28 20:20 | 36.04530 | 25.43625 | 15901 ft | 344 kts | 162° |
| 2026-04-28 20:20 | 36.03031 | 25.44222 | 15673 ft | 341 kts | 162° |
| 2026-04-28 20:20 | 36.00785 | 25.45123 | 15326 ft | 336 kts | 162° |
| 2026-04-28 20:20 | 35.97862 | 25.46298 | 14873 ft | 330 kts | 162° |
| 2026-04-28 20:21 | 35.95691 | 25.47168 | 14530 ft | 328 kts | 162° |
| 2026-04-28 20:21 | 35.93513 | 25.48043 | 14195 ft | 329 kts | 162° |
| 2026-04-28 20:21 | 35.92068 | 25.48625 | 13972 ft | 329 kts | 162° |
| 2026-04-28 20:21 | 35.89157 | 25.49798 | 13480 ft | 329 kts | 161° |
| 2026-04-28 20:22 | 35.87713 | 25.50377 | 13243 ft | 329 kts | 161° |
| 2026-04-28 20:22 | 35.85505 | 25.51261 | 12882 ft | 329 kts | 161° |
| 2026-04-28 20:22 | 35.83355 | 25.52121 | 12533 ft | 329 kts | 161° |
| 2026-04-28 20:22 | 35.81176 | 25.52992 | 12184 ft | 329 kts | 162° |
| 2026-04-28 20:23 | 35.78997 | 25.53862 | 11831 ft | 328 kts | 161° |
| 2026-04-28 20:23 | 35.76820 | 25.54733 | 11485 ft | 329 kts | 161° |
| 2026-04-28 20:23 | 35.74651 | 25.55601 | 11114 ft | 326 kts | 161° |
| 2026-04-28 20:23 | 35.72501 | 25.56462 | 10789 ft | 326 kts | 161° |
| 2026-04-28 20:24 | 35.70344 | 25.57335 | 10450 ft | 325 kts | 159° |
| 2026-04-28 20:24 | 35.68393 | 25.58616 | 10080 ft | 312 kts | 142° |
| 2026-04-28 20:24 | 35.66724 | 25.60243 | 9817 ft | 300 kts | 139° |
| 2026-04-28 20:24 | 35.65160 | 25.61839 | 9582 ft | 292 kts | 138° |
| 2026-04-28 20:25 | 35.63601 | 25.63414 | 9235 ft | 289 kts | 139° |
| 2026-04-28 20:25 | 35.62038 | 25.64975 | 8864 ft | 290 kts | 139° |
| 2026-04-28 20:25 | 35.60292 | 25.66220 | 8497 ft | 291 kts | 161° |
| 2026-04-28 20:25 | 35.58298 | 25.66508 | 8159 ft | 290 kts | 187° |
| 2026-04-28 20:26 | 35.56403 | 25.65826 | 7856 ft | 286 kts | 210° |
| 2026-04-28 20:26 | 35.54876 | 25.64325 | 7565 ft | 280 kts | 234° |
| 2026-04-28 20:26 | 35.53935 | 25.62273 | 7262 ft | 273 kts | 256° |
| 2026-04-28 20:26 | 35.53678 | 25.60020 | 6953 ft | 264 kts | 277° |
| 2026-04-28 20:27 | 35.53873 | 25.57780 | 6661 ft | 264 kts | 276° |
| 2026-04-28 20:27 | 35.53617 | 25.55544 | 6347 ft | 269 kts | 254° |
| 2026-04-28 20:27 | 35.52740 | 25.53499 | 6015 ft | 272 kts | 241° |
| 2026-04-28 20:27 | 35.51694 | 25.51569 | 5665 ft | 271 kts | 240° |
| 2026-04-28 20:28 | 35.50657 | 25.49673 | 5340 ft | 269 kts | 240° |
| 2026-04-28 20:28 | 35.49626 | 25.47764 | 5036 ft | 267 kts | 240° |
| 2026-04-28 20:28 | 35.48606 | 25.45872 | 4711 ft | 265 kts | 240° |
| 2026-04-28 20:28 | 35.47595 | 25.43993 | 4385 ft | 264 kts | 240° |
| 2026-04-28 20:29 | 35.46571 | 25.42100 | 4207 ft | 265 kts | 238° |
| 2026-04-28 20:29 | 35.45215 | 25.40569 | 4184 ft | 270 kts | 208° |
| 2026-04-28 20:29 | 35.43377 | 25.40096 | 4251 ft | 275 kts | 176° |
| 2026-04-28 20:29 | 35.41585 | 25.40815 | 4210 ft | 274 kts | 147° |
| 2026-04-28 20:30 | 35.40018 | 25.42057 | 4228 ft | 260 kts | 144° |
| 2026-04-28 20:30 | 35.38548 | 25.43222 | 4215 ft | 242 kts | 146° |
| 2026-04-28 20:30 | 35.37060 | 25.44010 | 4221 ft | 232 kts | 174° |
| 2026-04-28 20:30 | 35.35529 | 25.43717 | 3993 ft | 225 kts | 213° |
| 2026-04-28 20:31 | 35.34487 | 25.42372 | 3693 ft | 213 kts | 253° |
| 2026-04-28 20:31 | 35.34125 | 25.40664 | 3409 ft | 209 kts | 262° |
| 2026-04-28 20:31 | 35.33730 | 25.38937 | 3098 ft | 210 kts | 255° |
| 2026-04-28 20:31 | 35.33203 | 25.37273 | 2776 ft | 209 kts | 251° |
| 2026-04-28 20:32 | 35.32684 | 25.35612 | 2445 ft | 207 kts | 260° |
| 2026-04-28 20:32 | 35.32707 | 25.33905 | 2145 ft | 196 kts | 281° |
| 2026-04-28 20:32 | 35.32900 | 25.32326 | 1964 ft | 178 kts | 280° |
| 2026-04-28 20:32 | 35.33044 | 25.30959 | 1982 ft | 142 kts | 279° |
| 2026-04-28 20:33 | 35.33144 | 25.29799 | 1982 ft | 136 kts | 278° |
| 2026-04-28 20:33 | 35.33230 | 25.28649 | 1860 ft | 135 kts | 279° |
| 2026-04-28 20:33 | 35.33307 | 25.27530 | 1653 ft | 133 kts | 279° |
| 2026-04-28 20:33 | 35.33382 | 25.26413 | 1438 ft | 131 kts | 277° |
| 2026-04-28 20:34 | 35.33462 | 25.25278 | 1231 ft | 132 kts | 277° |
| 2026-04-28 20:34 | 35.33538 | 25.24151 | 969 ft | 134 kts | 276° |
| 2026-04-28 20:34 | 35.33634 | 25.22993 | 749 ft | 138 kts | 276° |
| 2026-04-28 20:34 | 35.33721 | 25.21830 | 573 ft | 140 kts | 274° |
| 2026-04-28 20:35 | 35.33802 | 25.20636 | 395 ft | 141 kts | 274° |
| 2026-04-28 20:35 | 35.33876 | 25.19438 | 202 ft | 141 kts | 273° |
| 2026-04-28 20:35 | 35.33959 | 25.18300 | 101 ft | 134 kts | 273° |
| 2026-04-28 20:35 | 35.34023 | 25.17364 | 96 ft | 81 kts | 273° |
| 2026-04-28 20:36 | 35.34051 | 25.16948 | 96 ft | 26 kts | 276° |
| 2026-04-28 20:36 | 35.34057 | 25.16868 | 98 ft | 1 kts | 258° |
| 2026-04-28 20:37 | 35.34027 | 25.16862 | 98 ft | 8 kts | 167° |
| 2026-04-28 20:37 | 35.33983 | 25.16921 | 95 ft | 5 kts | 126° |
| 2026-04-28 20:37 | 35.33978 | 25.16929 | 95 ft | 0 kts | 125° |
| 2026-04-28 20:38 | 35.33976 | 25.16932 | 95 ft | 2 kts | 125° |
| 2026-04-28 20:38 | 35.33962 | 25.16960 | 95 ft | 6 kts | 118° |
| 2026-04-28 20:38 | 35.33946 | 25.17020 | 96 ft | 9 kts | 102° |
| 2026-04-28 20:38 | 35.33938 | 25.17114 | 95 ft | 13 kts | 93° |
| 2026-04-28 20:39 | 35.33933 | 25.17224 | 96 ft | 11 kts | 95° |
| 2026-04-28 20:39 | 35.33928 | 25.17317 | 96 ft | 11 kts | 95° |
| 2026-04-28 20:39 | 35.33917 | 25.17428 | 96 ft | 15 kts | 95° |
| 2026-04-28 20:39 | 35.33904 | 25.17493 | 98 ft | 8 kts | 136° |
| 2026-04-28 20:40 | 35.33884 | 25.17496 | 96 ft | 2 kts | 176° |
| 2026-04-28 20:40 | 35.33857 | 25.17497 | 99 ft | 5 kts | 179° |
| 2026-04-28 20:40 | 35.33811 | 25.17493 | 96 ft | 8 kts | 195° |
| 2026-04-28 20:40 | 35.33804 | 25.17446 | 96 ft | 1 kts | 275° |
| 2026-04-28 20:41 | 35.33808 | 25.17434 | 96 ft | 0 kts | 310° |
| 2026-04-28 20:41 | 35.33814 | 25.17425 | 98 ft | 2 kts | 307° |
| 2026-04-28 20:41 | 35.33820 | 25.17417 | 97 ft | 0 kts | 313° |